createdAt,value
2023-01-13T00:02:03.459Z,11.60
2023-01-13T00:06:57.900Z,11.50
2023-01-13T00:11:50.136Z,11.50
2023-01-13T00:16:43.253Z,11.50
2023-01-13T00:21:37.736Z,11.60
2023-01-13T00:26:36.036Z,11.50
2023-01-13T00:31:29.328Z,11.50
2023-01-13T00:36:21.535Z,11.50
2023-01-13T00:41:19.627Z,11.50
2023-01-13T00:46:13.273Z,11.50
2023-01-13T00:51:10.904Z,11.50
2023-01-13T00:56:19.972Z,11.40
2023-01-13T01:01:22.364Z,11.30
2023-01-13T01:06:17.453Z,11.20
2023-01-13T01:11:16.008Z,11.20
2023-01-13T01:16:10.837Z,11.20
2023-01-13T01:21:03.873Z,11.10
2023-01-13T01:26:04.131Z,11.10
2023-01-13T01:31:00.484Z,11.00
2023-01-13T01:35:54.848Z,11.00
2023-01-13T01:40:46.943Z,10.90
2023-01-13T01:45:38.941Z,11.00
2023-01-13T01:50:33.244Z,11.00
2023-01-13T01:55:30.534Z,11.10
2023-01-13T02:00:23.298Z,11.10
2023-01-13T02:12:29.430Z,11.10
2023-01-13T02:17:21.344Z,11.20
2023-01-13T02:22:13.248Z,11.20
2023-01-13T02:27:16.874Z,11.30
2023-01-13T02:32:18.455Z,11.40
2023-01-13T02:37:17.499Z,11.30
2023-01-13T02:42:42.375Z,11.30
2023-01-13T02:47:38.220Z,11.50
2023-01-13T02:52:36.636Z,11.40
2023-01-13T02:57:33.123Z,11.50
2023-01-13T03:02:26.131Z,11.50
2023-01-13T03:07:44.197Z,11.50
2023-01-13T03:12:51.719Z,11.50
2023-01-13T03:18:13.085Z,11.50
2023-01-13T03:23:31.186Z,11.60
2023-01-13T03:28:32.366Z,11.70
2023-01-13T03:33:33.906Z,11.70
2023-01-13T03:38:33.354Z,11.80
2023-01-13T03:43:50.232Z,11.70
2023-01-13T03:48:45.678Z,11.80
2023-01-13T03:53:48.652Z,11.70
2023-01-13T03:58:45.876Z,11.70
2023-01-13T04:03:57.333Z,11.70
2023-01-13T04:08:55.622Z,11.80
2023-01-13T04:13:49.619Z,11.80
2023-01-13T04:18:41.757Z,11.90
2023-01-13T04:23:34.044Z,11.80
2023-01-13T04:28:26.714Z,11.80
2023-01-13T04:33:19.773Z,11.80
2023-01-13T04:38:17.872Z,11.70
2023-01-13T04:43:09.952Z,11.80
2023-01-13T04:48:02.088Z,11.90
2023-01-13T04:52:54.480Z,11.90
2023-01-13T04:57:46.830Z,11.80
2023-01-13T05:02:38.838Z,11.80
2023-01-13T05:07:31.188Z,11.80
2023-01-13T05:12:42.031Z,11.80
2023-01-13T05:17:34.261Z,11.70
2023-01-13T05:22:45.083Z,11.70
2023-01-13T05:27:37.148Z,11.80
2023-01-13T05:32:29.218Z,11.70
2023-01-13T05:37:21.221Z,11.70
2023-01-13T05:42:31.746Z,11.80
2023-01-13T05:47:23.794Z,11.90
2023-01-13T05:52:16.019Z,11.90
2023-01-13T05:57:07.948Z,11.80
2023-01-13T06:01:59.934Z,11.90
2023-01-13T06:06:51.937Z,11.70
2023-01-13T06:11:43.891Z,11.80
2023-01-13T06:16:35.959Z,11.70
2023-01-13T06:21:28.020Z,11.80
2023-01-13T06:26:23.133Z,11.80
2023-01-13T06:31:15.196Z,11.70
2023-01-13T06:36:12.465Z,11.80
2023-01-13T06:41:07.142Z,11.80
2023-01-13T06:46:00.848Z,11.90
2023-01-13T06:50:54.142Z,11.90
2023-01-13T06:55:46.384Z,11.90
2023-01-13T07:00:38.809Z,11.80
2023-01-13T07:05:30.779Z,11.90
2023-01-13T07:10:22.794Z,11.90
2023-01-13T07:15:21.038Z,11.90
2023-01-13T07:20:13.266Z,11.90
2023-01-13T07:25:05.641Z,12.00
2023-01-13T07:29:58.866Z,12.00
2023-01-13T07:34:50.813Z,12.10
2023-01-13T07:39:42.784Z,12.10
2023-01-13T07:44:34.922Z,12.10
2023-01-13T07:49:27.024Z,12.10
2023-01-13T07:54:19.515Z,12.10
2023-01-13T07:59:11.533Z,12.00
2023-01-13T08:04:03.655Z,12.10
2023-01-13T08:08:56.127Z,12.10
2023-01-13T08:13:48.452Z,12.10
2023-01-13T08:18:41.442Z,12.20
2023-01-13T08:23:33.806Z,12.10
2023-01-13T08:28:25.846Z,12.10
2023-01-13T08:33:17.909Z,12.20
2023-01-13T08:38:10.354Z,12.30
2023-01-13T08:43:02.584Z,12.60
2023-01-13T08:47:54.518Z,12.90
2023-01-13T08:52:46.555Z,13.30
2023-01-13T08:57:38.586Z,13.30
2023-01-13T09:02:30.660Z,13.20
2023-01-13T09:07:22.717Z,13.20
2023-01-13T09:12:34.712Z,13.50
2023-01-13T09:17:27.375Z,14.60
2023-01-13T09:22:20.414Z,14.80
2023-01-13T09:27:14.346Z,14.00
2023-01-13T09:32:06.894Z,12.60
2023-01-13T09:36:59.354Z,11.40
2023-01-13T09:42:31.352Z,10.90
2023-01-13T09:47:30.654Z,10.60
2023-01-13T09:52:26.805Z,10.40
2023-01-13T09:57:21.148Z,10.20
2023-01-13T10:02:57.381Z,10.30
2023-01-13T10:08:02.809Z,10.30
2023-01-13T10:13:13.690Z,10.30
2023-01-13T10:18:54.007Z,10.30
2023-01-13T10:24:10.171Z,10.50
2023-01-13T10:29:02.256Z,10.60
2023-01-13T10:34:04.192Z,10.60
2023-01-13T10:39:14.769Z,10.70
2023-01-13T10:44:18.271Z,10.70
2023-01-13T10:49:33.070Z,10.90
2023-01-13T10:54:26.513Z,11.10
2023-01-13T10:59:24.332Z,11.20
2023-01-13T11:04:29.639Z,11.30
2023-01-13T11:09:22.642Z,11.30
2023-01-13T11:14:41.502Z,11.20
2023-01-13T11:19:38.059Z,11.20
2023-01-13T11:24:37.947Z,11.00
2023-01-13T11:29:46.439Z,10.90
2023-01-13T11:34:41.611Z,10.80
2023-01-13T11:39:56.860Z,10.90
2023-01-13T11:45:06.421Z,11.40
2023-01-13T11:49:59.461Z,11.80
2023-01-13T11:55:27.435Z,11.70
2023-01-13T12:01:01.589Z,11.40
2023-01-13T12:06:10.963Z,11.20
2023-01-13T12:11:14.839Z,11.00
2023-01-13T12:16:06.899Z,10.90
2023-01-13T12:21:20.824Z,11.00
2023-01-13T12:26:18.622Z,11.40
2023-01-13T12:31:11.225Z,11.90
2023-01-13T12:36:29.706Z,12.50
2023-01-13T12:42:06.445Z,12.50
2023-01-13T12:46:59.867Z,12.20
2023-01-13T12:51:54.912Z,11.90
2023-01-13T12:56:47.133Z,11.70
2023-01-13T13:01:39.151Z,11.50
2023-01-13T13:06:32.120Z,11.90
2023-01-13T13:11:58.137Z,12.50
2023-01-13T13:16:52.090Z,12.40
2023-01-13T13:22:12.978Z,12.00
2023-01-13T13:27:37.488Z,11.60
2023-01-13T13:32:38.805Z,11.40
2023-01-13T13:38:08.071Z,11.40
2023-01-13T13:43:19.085Z,11.30
2023-01-13T13:48:34.366Z,11.20
2023-01-13T13:53:32.407Z,11.10
2023-01-13T13:58:26.356Z,11.00
2023-01-13T14:03:25.917Z,11.00
2023-01-13T14:08:18.432Z,10.90
2023-01-13T14:13:30.116Z,10.80
2023-01-13T14:18:22.588Z,10.70
2023-01-13T14:23:18.378Z,10.70
2023-01-13T14:28:34.025Z,10.70
2023-01-13T14:33:43.715Z,10.60
2023-01-13T14:38:35.747Z,10.50
2023-01-13T14:43:27.715Z,10.40
2023-01-13T14:48:21.356Z,10.20
2023-01-13T14:53:36.759Z,10.10
2023-01-13T14:58:28.903Z,10.20
2023-01-13T15:03:21.766Z,10.30
2023-01-13T15:08:17.531Z,10.30
2023-01-13T15:13:35.461Z,10.40
2023-01-13T15:18:27.653Z,10.40
2023-01-13T15:23:20.513Z,10.10
2023-01-13T15:28:20.085Z,9.80
2023-01-13T15:33:14.192Z,9.40
2023-01-13T15:38:14.873Z,9.10
2023-01-13T15:43:25.588Z,8.90
2023-01-13T15:48:18.392Z,8.50
2023-01-13T15:53:14.393Z,7.90
2023-01-13T15:58:06.778Z,7.50
2023-01-13T16:02:59.849Z,7.20
2023-01-13T16:07:52.017Z,7.20
2023-01-13T16:12:45.545Z,7.10
2023-01-13T16:17:37.537Z,6.80
2023-01-13T16:22:29.628Z,6.70
2023-01-13T16:27:23.724Z,6.60
2023-01-13T16:32:16.436Z,6.50
2023-01-13T16:37:22.064Z,6.40
2023-01-13T16:42:14.840Z,6.30
2023-01-13T16:47:10.449Z,6.50
2023-01-13T16:52:02.496Z,6.50
2023-01-13T16:56:54.441Z,6.60
2023-01-13T17:01:46.515Z,6.80
2023-01-13T17:06:58.339Z,6.90
2023-01-13T17:11:51.057Z,7.00
2023-01-13T17:16:43.263Z,6.70
2023-01-13T17:21:35.497Z,6.60
2023-01-13T17:26:37.336Z,6.50
2023-01-13T17:31:30.281Z,6.40
2023-01-13T17:36:24.216Z,6.50
2023-01-13T17:41:16.743Z,6.40
2023-01-13T17:46:09.964Z,6.70
2023-01-13T17:51:02.041Z,6.90
2023-01-13T17:55:55.521Z,7.10
2023-01-13T18:00:48.234Z,7.40
2023-01-13T18:05:41.055Z,7.70
2023-01-13T18:10:33.784Z,7.90
2023-01-13T18:15:26.256Z,8.20
2023-01-13T18:20:37.433Z,8.30
2023-01-13T18:25:52.503Z,8.40
2023-01-13T18:30:44.555Z,8.50
2023-01-13T18:35:39.154Z,8.50
2023-01-13T18:40:31.161Z,8.50
2023-01-13T18:45:31.515Z,8.60
2023-01-13T18:50:24.182Z,8.60
2023-01-13T18:55:17.827Z,8.60
2023-01-13T19:00:12.724Z,8.70
2023-01-13T19:05:05.444Z,8.70
2023-01-13T19:09:59.516Z,8.70
2023-01-13T19:14:55.177Z,8.80
2023-01-13T19:19:49.041Z,8.80
2023-01-13T19:24:44.236Z,8.60
2023-01-13T19:29:36.500Z,8.60
2023-01-13T19:34:28.784Z,8.50
2023-01-13T19:39:21.990Z,8.50
2023-01-13T19:44:32.493Z,8.60
2023-01-13T19:49:24.397Z,8.70
2023-01-13T19:54:17.235Z,8.60
2023-01-13T19:59:11.757Z,8.40
2023-01-13T20:04:05.695Z,8.50
2023-01-13T20:08:57.686Z,8.30
2023-01-13T20:13:52.094Z,8.20
2023-01-13T20:18:44.305Z,8.40
2023-01-13T20:23:36.749Z,8.30
2023-01-13T20:28:28.846Z,8.50
2023-01-13T20:33:20.858Z,8.60
2023-01-13T20:43:40.922Z,8.70
2023-01-13T20:48:33.034Z,8.90
2023-01-13T20:53:25.035Z,8.90
2023-01-13T20:58:17.004Z,8.60
2023-01-13T21:03:08.947Z,8.60
2023-01-13T21:08:02.121Z,8.40
2023-01-13T21:13:12.623Z,8.30
2023-01-13T21:18:23.060Z,8.20
2023-01-13T21:23:15.362Z,8.30
2023-01-13T21:28:10.292Z,8.40
2023-01-13T21:33:04.045Z,8.50
2023-01-13T21:37:56.179Z,8.60
2023-01-13T21:43:06.844Z,8.70
2023-01-13T21:48:02.609Z,8.70
2023-01-13T21:52:55.203Z,8.80
2023-01-13T21:57:51.721Z,8.90
2023-01-13T22:02:44.415Z,9.00
2023-01-13T22:07:38.199Z,9.00
2023-01-13T22:12:30.531Z,8.70
2023-01-13T22:17:25.123Z,8.40
2023-01-13T22:22:18.880Z,8.20
2023-01-13T22:27:11.416Z,8.00
2023-01-13T22:32:03.904Z,7.80
2023-01-13T22:36:55.950Z,7.70
2023-01-13T22:41:47.936Z,7.80
2023-01-13T22:46:40.021Z,7.90
2023-01-13T22:51:32.073Z,7.90
2023-01-13T22:56:25.833Z,8.00
2023-01-13T23:01:17.973Z,8.00
2023-01-13T23:06:10.160Z,8.10
2023-01-13T23:11:07.536Z,8.20
2023-01-13T23:16:11.007Z,8.40
2023-01-13T23:21:08.224Z,8.50
2023-01-13T23:26:02.848Z,8.60
2023-01-13T23:30:54.870Z,8.70
2023-01-13T23:35:57.430Z,8.70
2023-01-13T23:40:49.453Z,8.50
2023-01-13T23:45:41.449Z,8.40
2023-01-13T23:50:33.691Z,8.30
2023-01-13T23:55:28.534Z,8.20
